Time;durP1;ratioP1;P1;durP2;ratioP2;P2;SDS_P1;SDS_P2;PMS_P1;PMS_P2;Temp;Humidity;BMP_temperature;BMP_pressure;BME280_temperature;BME280_humidity;BME280_pressure;Samples;Min_cycle;Max_cycle;Signal;HPM_P1;HPM_P2
2022/06/25 00:01:18;;;;;;;17.10;15.45;;;19.00;99.90;;;;;;5071087;28;20344;-92
2022/06/25 00:03:46;;;;;;;18.30;16.20;;;19.00;99.90;;;;;;5069669;28;20224;-92
2022/06/25 00:06:13;;;;;;;17.55;15.75;;;18.90;99.90;;;;;;5073529;28;20322;-91
2022/06/25 00:08:41;;;;;;;18.55;15.13;;;18.90;99.90;;;;;;5075543;28;20310;-92
2022/06/25 00:12:31;;;;;;;17.83;16.02;;;18.80;99.90;;;;;;5062790;28;20248;-92
2022/06/25 00:13:54;;;;;;;19.00;15.05;;;18.90;99.90;;;;;;5072220;28;20287;-93
2022/06/25 00:16:21;;;;;;;16.88;15.15;;;18.80;99.90;;;;;;5076937;28;20822;-93
2022/06/25 00:18:47;;;;;;;18.40;16.35;;;18.80;99.90;;;;;;5065778;28;20313;-92
2022/06/25 00:21:14;;;;;;;17.40;15.40;;;18.80;99.90;;;;;;5069628;28;20305;-93
2022/06/25 00:23:42;;;;;;;17.00;15.20;;;18.70;99.90;;;;;;5083781;28;20229;-92
2022/06/25 00:26:09;;;;;;;16.92;15.32;;;18.70;99.90;;;;;;5084724;28;20303;-92
2022/06/25 00:28:36;;;;;;;17.35;15.63;;;18.70;99.90;;;;;;5070120;28;20219;-90
2022/06/25 00:31:03;;;;;;;18.00;15.75;;;18.70;99.90;;;;;;5067617;28;20219;-93
2022/06/25 00:33:30;;;;;;;16.67;14.75;;;18.70;99.90;;;;;;5070992;28;20306;-92
2022/06/25 00:35:57;;;;;;;16.80;15.13;;;18.70;99.90;;;;;;5071044;28;20253;-93
2022/06/25 00:38:23;;;;;;;16.95;15.15;;;18.70;99.90;;;;;;5072632;28;20298;-93
2022/06/25 00:40:51;;;;;;;16.38;14.05;;;18.70;99.90;;;;;;5070600;28;20238;-90
2022/06/25 00:43:18;;;;;;;17.23;15.05;;;18.60;99.90;;;;;;5069280;28;20761;-92
2022/06/25 00:45:46;;;;;;;19.38;16.25;;;18.60;99.90;;;;;;5063512;28;20218;-92
2022/06/25 00:48:12;;;;;;;17.88;15.65;;;18.60;99.90;;;;;;5068106;28;20302;-92
2022/06/25 00:50:39;;;;;;;18.75;15.75;;;18.60;99.90;;;;;;5066253;28;20447;-92
2022/06/25 00:53:06;;;;;;;19.35;16.58;;;18.60;99.90;;;;;;5068473;28;20624;-91
2022/06/25 00:55:39;;;;;;;19.52;17.38;;;18.60;99.90;;;;;;5075294;28;20287;-92
2022/06/25 00:58:11;;;;;;;18.23;16.23;;;18.70;99.90;;;;;;5072096;28;20257;-92
2022/06/25 01:00:39;;;;;;;18.50;15.65;;;18.60;99.90;;;;;;5083489;28;20234;-91
2022/06/25 01:03:07;;;;;;;18.45;16.17;;;18.60;99.90;;;;;;5063352;28;20575;-92
2022/06/25 01:05:34;;;;;;;19.95;17.55;;;18.60;99.90;;;;;;5066108;28;20245;-91
2022/06/25 01:08:00;;;;;;;22.67;19.08;;;18.60;99.90;;;;;;5072749;28;20239;-91
2022/06/25 01:10:27;;;;;;;23.33;17.15;;;18.60;99.90;;;;;;5069071;28;20223;-92
2022/06/25 01:12:54;;;;;;;20.58;18.58;;;18.60;99.90;;;;;;5069052;28;20215;-91
2022/06/25 01:15:23;;;;;;;19.58;17.58;;;18.60;99.90;;;;;;5076107;28;20309;-91
2022/06/25 01:17:51;;;;;;;19.48;17.48;;;18.60;99.90;;;;;;5079230;28;20294;-91
2022/06/25 01:20:23;;;;;;;20.67;18.50;;;18.60;99.90;;;;;;5090187;28;20203;-91
2022/06/25 01:22:52;;;;;;;20.83;18.70;;;18.60;99.90;;;;;;5090697;28;20211;-90
2022/06/25 01:25:19;;;;;;;21.13;18.85;;;18.60;99.90;;;;;;5090110;28;20211;-90
2022/06/25 01:27:47;;;;;;;21.23;18.30;;;18.50;99.90;;;;;;5092827;28;20442;-90
2022/06/25 01:30:15;;;;;;;19.83;17.48;;;18.60;99.90;;;;;;5088632;28;20230;-90
2022/06/25 01:32:42;;;;;;;21.88;19.42;;;18.50;99.90;;;;;;5091986;28;20249;-90
2022/06/25 01:35:09;;;;;;;21.35;19.15;;;18.50;99.90;;;;;;5093038;28;20394;-91
2022/06/25 01:37:37;;;;;;;20.05;17.95;;;18.50;99.90;;;;;;5088599;28;20203;-90
2022/06/25 01:40:06;;;;;;;21.08;18.88;;;18.50;99.90;;;;;;5089065;28;20207;-91
2022/06/25 01:45:17;;;;;;;24.17;18.92;;;18.50;99.90;;;;;;5092692;28;20223;-90
2022/06/25 01:47:44;;;;;;;21.05;17.65;;;18.40;99.90;;;;;;5091284;28;20217;-90
2022/06/25 01:50:12;;;;;;;24.95;19.13;;;18.40;99.90;;;;;;5092560;28;20240;-91
2022/06/25 01:52:40;;;;;;;24.27;20.35;;;18.40;99.90;;;;;;5092079;28;20199;-91
2022/06/25 01:55:10;;;;;;;23.60;19.50;;;18.40;99.90;;;;;;5092274;28;20291;-91
2022/06/25 01:57:39;;;;;;;21.90;19.27;;;18.40;99.90;;;;;;5090737;28;20214;-91
2022/06/25 02:00:09;;;;;;;20.75;18.35;;;18.30;99.90;;;;;;5094980;28;20202;-90
2022/06/25 02:02:42;;;;;;;21.73;19.45;;;18.30;99.90;;;;;;5106497;28;20203;-91
2022/06/25 02:05:10;;;;;;;23.17;19.77;;;18.30;99.90;;;;;;5086400;28;20199;-91
2022/06/25 02:07:37;;;;;;;22.13;19.73;;;18.30;99.90;;;;;;5094053;28;20592;-91
2022/06/25 02:10:04;;;;;;;24.80;19.92;;;18.30;99.90;;;;;;5110456;28;20259;-91
2022/06/25 02:12:32;;;;;;;23.63;19.67;;;18.20;99.90;;;;;;5088513;28;20260;-92
2022/06/25 02:14:59;;;;;;;25.70;20.77;;;18.20;99.90;;;;;;5107611;28;20210;-91
2022/06/25 02:17:26;;;;;;;24.58;21.90;;;18.20;99.90;;;;;;5096700;28;20222;-90
2022/06/25 02:19:53;;;;;;;22.73;20.30;;;18.10;99.90;;;;;;5091877;28;20229;-91
2022/06/25 02:22:19;;;;;;;22.13;19.55;;;18.10;99.90;;;;;;5092969;28;20226;-90
2022/06/25 02:24:46;;;;;;;22.17;19.80;;;18.10;99.90;;;;;;5092073;28;20214;-90
2022/06/25 02:27:13;;;;;;;23.48;18.95;;;18.10;99.90;;;;;;5088944;28;20275;-90
2022/06/25 02:29:41;;;;;;;22.95;19.25;;;18.00;99.90;;;;;;5091469;28;20214;-91
2022/06/25 02:32:08;;;;;;;23.67;20.73;;;18.10;99.90;;;;;;5081664;28;20295;-91
2022/06/25 02:34:36;;;;;;;23.98;20.13;;;18.00;99.90;;;;;;5090040;27;20226;-92
2022/06/25 02:37:03;;;;;;;20.88;18.40;;;18.00;99.90;;;;;;5092901;28;20218;-91
2022/06/25 02:39:30;;;;;;;20.00;17.75;;;18.00;99.90;;;;;;5087193;28;20237;-91
2022/06/25 02:41:57;;;;;;;20.65;18.10;;;18.00;99.90;;;;;;5079324;28;20260;-92
2022/06/25 02:44:24;;;;;;;22.30;19.05;;;17.90;99.90;;;;;;5072995;28;20228;-92
2022/06/25 02:46:57;;;;;;;22.25;19.10;;;18.00;99.90;;;;;;5063092;28;20297;-93
2022/06/25 02:49:28;;;;;;;22.60;19.98;;;17.90;99.90;;;;;;5065339;28;20302;-92
2022/06/25 02:51:55;;;;;;;20.88;18.48;;;17.90;99.90;;;;;;5070741;28;20664;-92
2022/06/25 02:54:22;;;;;;;24.55;21.10;;;17.90;99.90;;;;;;5067690;28;20240;-92
2022/06/25 02:59:35;;;;;;;22.98;19.73;;;17.90;99.90;;;;;;5069517;28;20704;-92
2022/06/25 03:02:05;;;;;;;23.58;20.88;;;17.80;99.90;;;;;;5063649;28;20223;-92
2022/06/25 03:04:34;;;;;;;25.20;20.42;;;17.80;99.90;;;;;;5062779;28;20223;-92
2022/06/25 03:07:02;;;;;;;23.92;20.75;;;17.80;99.90;;;;;;5069248;28;20244;-90
2022/06/25 03:09:29;;;;;;;21.88;18.65;;;17.70;99.90;;;;;;5064068;28;20227;-90
2022/06/25 03:11:57;;;;;;;24.25;19.13;;;17.70;99.90;;;;;;5067397;28;20272;-91
2022/06/25 03:14:24;;;;;;;19.65;17.65;;;17.70;99.90;;;;;;5062804;28;20223;-92
2022/06/25 03:16:51;;;;;;;20.10;17.95;;;17.60;99.90;;;;;;5066684;28;20230;-92
2022/06/25 03:19:19;;;;;;;20.20;17.58;;;17.60;99.90;;;;;;5057659;28;20219;-92
2022/06/25 03:21:54;;;;;;;17.90;16.10;;;17.60;99.90;;;;;;5066083;28;20708;-93
2022/06/25 03:24:23;;;;;;;20.52;17.35;;;17.50;99.90;;;;;;5079483;28;20229;-91
2022/06/25 03:26:49;;;;;;;23.45;19.15;;;17.50;99.90;;;;;;5082921;28;20211;-92
2022/06/25 03:29:17;;;;;;;20.40;18.25;;;17.40;99.90;;;;;;5082444;28;20714;-92
2022/06/25 03:31:44;;;;;;;19.88;17.77;;;17.40;99.90;;;;;;5080411;28;20227;-93
2022/06/25 03:34:41;;;;;;;19.00;16.42;;;17.40;99.90;;;;;;5098744;28;20218;-92
2022/06/25 03:37:08;;;;;;;22.48;19.33;;;17.40;99.90;;;;;;5077336;28;20229;-92
2022/06/25 03:39:35;;;;;;;21.02;17.38;;;17.40;99.90;;;;;;5089005;28;20219;-93
2022/06/25 03:42:04;;;;;;;19.23;16.90;;;17.40;99.90;;;;;;5087048;28;20219;-93
2022/06/25 03:44:41;;;;;;;21.13;18.65;;;17.40;99.90;;;;;;5080267;28;20277;-94
2022/06/25 03:47:15;;;;;;;19.90;17.33;;;17.40;99.90;;;;;;5087014;28;20304;-93
2022/06/25 03:49:44;;;;;;;20.77;18.58;;;17.40;99.90;;;;;;5088017;28;20226;-93
2022/06/25 03:52:15;;;;;;;20.30;17.55;;;17.40;99.90;;;;;;5099621;28;20234;-93
2022/06/25 03:54:42;;;;;;;19.75;17.05;;;17.40;99.90;;;;;;5090027;28;20206;-92
2022/06/25 03:57:10;;;;;;;22.67;17.40;;;17.50;99.90;;;;;;5090470;28;20226;-92
2022/06/25 04:00:00;;;;;;;24.23;21.63;;;17.40;99.90;;;;;;5081703;28;20282;-92
2022/06/25 04:02:39;;;;;;;26.77;23.70;;;17.50;99.90;;;;;;5087763;28;20692;-93
2022/06/25 04:05:26;;;;;;;35.67;28.25;;;17.50;99.90;;;;;;5060544;28;1027169;-92
2022/06/25 04:07:53;;;;;;;34.85;29.50;;;17.50;99.90;;;;;;5078522;28;20219;-92
2022/06/25 04:10:20;;;;;;;38.33;30.52;;;17.50;99.90;;;;;;5079969;28;20226;-93
2022/06/25 04:12:47;;;;;;;40.33;32.55;;;17.60;99.90;;;;;;5085231;28;20252;-93
2022/06/25 04:15:15;;;;;;;41.85;31.98;;;17.60;99.90;;;;;;5088433;28;20219;-92
2022/06/25 04:17:42;;;;;;;38.58;31.88;;;17.60;99.90;;;;;;5084910;28;20245;-93
2022/06/25 04:20:11;;;;;;;38.77;32.27;;;17.60;99.90;;;;;;5084103;28;20274;-92
2022/06/25 04:22:40;;;;;;;37.70;29.98;;;17.70;99.90;;;;;;5086512;28;20215;-92
2022/06/25 04:25:07;;;;;;;35.45;31.63;;;17.70;99.90;;;;;;5078973;28;20281;-93
2022/06/25 04:30:19;;;;;;;43.10;34.67;;;17.80;99.90;;;;;;5096898;28;20245;-93
2022/06/25 04:32:49;;;;;;;42.47;34.10;;;17.90;99.90;;;;;;5087125;28;20226;-92
2022/06/25 04:35:18;;;;;;;47.08;36.10;;;17.90;99.90;;;;;;5083159;28;20230;-93
2022/06/25 04:37:47;;;;;;;42.05;33.05;;;18.00;99.90;;;;;;5085770;28;20263;-93
2022/06/25 04:40:17;;;;;;;45.42;35.35;;;18.00;99.90;;;;;;5106386;28;20242;-93
2022/06/25 04:42:46;;;;;;;46.28;36.97;;;18.00;99.90;;;;;;5112949;28;20215;-92
2022/06/25 04:45:13;;;;;;;42.78;36.03;;;18.10;99.90;;;;;;5087547;28;20409;-93
2022/06/25 04:47:52;;;;;;;45.70;36.45;;;18.10;99.90;;;;;;5088296;28;20218;-92
2022/06/25 04:50:37;;;;;;;42.45;35.15;;;18.10;99.90;;;;;;5105596;28;20275;-92
2022/06/25 04:53:06;;;;;;;46.33;35.88;;;18.20;99.90;;;;;;5086296;28;20227;-92
2022/06/25 04:55:33;;;;;;;44.03;36.38;;;18.30;99.90;;;;;;5090426;28;20215;-93
2022/06/25 04:57:59;;;;;;;47.65;37.25;;;18.30;99.90;;;;;;5088707;28;20207;-93
2022/06/25 05:00:45;;;;;;;45.42;37.45;;;18.30;99.90;;;;;;5103039;28;20233;-92
2022/06/25 05:03:12;;;;;;;46.85;38.30;;;18.30;99.90;;;;;;5086101;28;20222;-93
2022/06/25 05:05:48;;;;;;;45.30;36.15;;;18.40;99.90;;;;;;5100232;28;20210;-93
2022/06/25 05:08:16;;;;;;;41.92;34.13;;;18.40;99.90;;;;;;5084738;28;20219;-93
2022/06/25 05:10:44;;;;;;;44.08;35.20;;;18.40;99.90;;;;;;5090276;28;20230;-93
2022/06/25 05:13:13;;;;;;;45.53;35.70;;;18.50;99.90;;;;;;5087983;28;20264;-92
2022/06/25 05:15:43;;;;;;;42.55;34.85;;;18.60;99.90;;;;;;5084600;28;20397;-93
2022/06/25 05:18:13;;;;;;;38.03;32.15;;;18.70;99.90;;;;;;5084780;28;20223;-92
2022/06/25 05:20:43;;;;;;;40.42;32.45;;;18.70;99.90;;;;;;5104498;28;20206;-93
2022/06/25 05:23:10;;;;;;;42.85;34.10;;;18.80;99.90;;;;;;5094380;28;20226;-94
2022/06/25 05:25:39;;;;;;;41.15;35.25;;;18.80;99.90;;;;;;5091798;28;20221;-92
2022/06/25 05:28:07;;;;;;;39.22;32.13;;;18.80;99.90;;;;;;5091776;28;20209;-94
2022/06/25 05:30:35;;;;;;;39.72;32.80;;;18.90;99.90;;;;;;5092446;28;20335;-93
2022/06/25 05:33:03;;;;;;;38.08;32.40;;;19.00;99.90;;;;;;5091008;28;20818;-94
2022/06/25 05:35:30;;;;;;;37.03;31.17;;;19.00;99.90;;;;;;5089633;28;20235;-94
2022/06/25 05:37:57;;;;;;;39.75;32.90;;;19.00;99.90;;;;;;5092599;28;20215;-94
2022/06/25 05:40:24;;;;;;;37.50;31.80;;;19.10;99.90;;;;;;5093285;28;20413;-94
2022/06/25 05:42:52;;;;;;;37.42;31.60;;;19.10;99.90;;;;;;5088550;28;20237;-93
2022/06/25 05:45:18;;;;;;;36.83;31.33;;;19.20;99.90;;;;;;5082763;28;20242;-94
2022/06/25 05:47:45;;;;;;;37.53;31.55;;;19.10;99.90;;;;;;5088914;28;20259;-93
2022/06/25 05:50:12;;;;;;;34.40;29.73;;;19.20;99.90;;;;;;5089946;28;20364;-93
2022/06/25 05:52:39;;;;;;;34.95;29.25;;;19.30;99.90;;;;;;5085936;28;20207;-94
2022/06/25 05:55:06;;;;;;;30.55;27.25;;;19.30;99.90;;;;;;5084309;28;20249;-92
2022/06/25 05:57:33;;;;;;;36.13;28.95;;;19.30;99.90;;;;;;5086095;28;20276;-93
2022/06/25 06:00:02;;;;;;;31.02;27.70;;;19.40;99.90;;;;;;5090544;28;20249;-92
2022/06/25 06:02:39;;;;;;;34.38;27.38;;;19.40;99.90;;;;;;5100147;28;20734;-93
2022/06/25 06:05:06;;;;;;;32.53;27.63;;;19.50;99.90;;;;;;5100588;28;20219;-93
2022/06/25 06:07:32;;;;;;;28.92;24.83;;;19.50;99.90;;;;;;5083357;28;20215;-93
2022/06/25 06:09:59;;;;;;;26.52;23.30;;;19.60;99.90;;;;;;5101767;28;20218;-92
2022/06/25 06:12:26;;;;;;;28.52;25.02;;;19.70;99.90;;;;;;5081194;28;20218;-93
2022/06/25 06:14:53;;;;;;;25.95;23.15;;;19.70;99.90;;;;;;5081165;28;20315;-93
2022/06/25 06:17:21;;;;;;;24.40;21.85;;;19.90;99.90;;;;;;5073883;28;20770;-91
2022/06/25 06:19:48;;;;;;;21.05;18.77;;;19.90;99.90;;;;;;5081627;28;20282;-93
2022/06/25 06:22:15;;;;;;;22.67;20.15;;;20.00;99.90;;;;;;5077307;28;20227;-93
2022/06/25 06:24:41;;;;;;;23.55;19.80;;;20.10;99.90;;;;;;5079140;28;20281;-93
2022/06/25 06:27:09;;;;;;;20.58;17.42;;;20.30;99.90;;;;;;5081474;28;20223;-93
2022/06/25 06:29:35;;;;;;;18.35;16.52;;;20.30;99.90;;;;;;5084271;28;20316;-92
2022/06/25 06:32:02;;;;;;;14.55;12.63;;;20.50;99.90;;;;;;5094835;28;20233;-93
2022/06/25 06:34:30;;;;;;;14.38;12.50;;;20.70;99.90;;;;;;5084436;28;20296;-94
2022/06/25 06:36:57;;;;;;;12.13;10.80;;;20.90;99.90;;;;;;5095848;28;20284;-93
2022/06/25 06:39:24;;;;;;;11.48;10.35;;;21.20;99.90;;;;;;5096512;28;20295;-93
2022/06/25 06:41:50;;;;;;;10.65;9.05;;;21.30;99.90;;;;;;5080021;28;20252;-93
2022/06/25 06:44:17;;;;;;;11.23;10.13;;;21.50;99.90;;;;;;5077791;28;20579;-93
2022/06/25 06:46:44;;;;;;;10.30;9.30;;;21.60;99.90;;;;;;5081950;28;20249;-93
2022/06/25 06:49:11;;;;;;;11.48;8.40;;;21.70;99.90;;;;;;5102985;28;20675;-93
2022/06/25 06:51:39;;;;;;;8.63;7.60;;;21.80;99.90;;;;;;5104131;28;20214;-94
2022/06/25 06:54:06;;;;;;;9.32;8.43;;;21.90;99.90;;;;;;5078530;28;20218;-92
2022/06/25 06:56:33;;;;;;;9.63;8.52;;;21.90;99.90;;;;;;5070261;28;20241;-91
2022/06/25 06:59:00;;;;;;;8.07;7.10;;;22.00;99.90;;;;;;5072315;28;20233;-91
2022/06/25 07:01:27;;;;;;;9.00;6.60;;;22.20;99.90;;;;;;5080628;28;21158;-92
2022/06/25 07:03:54;;;;;;;6.97;6.28;;;22.40;99.90;;;;;;5078324;28;20223;-93
2022/06/25 07:06:21;;;;;;;7.88;6.22;;;22.90;99.90;;;;;;5077565;28;20203;-93
2022/06/25 07:08:49;;;;;;;7.13;6.43;;;23.40;99.90;;;;;;5047965;28;20288;-92
2022/06/25 07:11:31;;;;;;;6.78;6.18;;;24.10;99.90;;;;;;5060075;28;20253;-93
2022/06/25 07:13:59;;;;;;;6.85;6.15;;;24.80;99.90;;;;;;5079576;28;20215;-92
2022/06/25 07:16:26;;;;;;;8.13;5.70;;;25.60;98.70;;;;;;5103711;28;20233;-95
2022/06/25 07:18:55;;;;;;;6.05;5.45;;;26.30;98.10;;;;;;5085776;28;20250;-95
2022/06/25 07:21:23;;;;;;;7.15;5.15;;;27.00;97.40;;;;;;5082475;28;20230;-95
2022/06/25 07:23:52;;;;;;;7.03;6.03;;;27.60;96.30;;;;;;5088262;28;20206;-93
2022/06/25 07:26:19;;;;;;;5.60;5.10;;;28.20;94.90;;;;;;5076723;28;20228;-95
2022/06/25 07:28:47;;;;;;;5.25;4.78;;;28.70;94.50;;;;;;5077829;28;20269;-94
2022/06/25 07:31:14;;;;;;;6.00;4.43;;;29.30;93.40;;;;;;5093855;28;20241;-94
2022/06/25 07:33:41;;;;;;;4.63;3.80;;;30.00;92.50;;;;;;5073299;28;20225;-94
2022/06/25 07:36:08;;;;;;;3.08;2.20;;;30.40;90.50;;;;;;5081755;28;20272;-95
2022/06/25 07:38:35;;;;;;;3.55;2.65;;;30.90;88.50;;;;;;5080595;28;20223;-94
2022/06/25 07:41:03;;;;;;;3.60;2.60;;;31.20;86.80;;;;;;5076999;28;20219;-94
2022/06/25 07:43:30;;;;;;;3.72;3.20;;;31.40;84.20;;;;;;5094113;28;20231;-94
2022/06/25 07:45:58;;;;;;;4.60;2.70;;;31.50;83.70;;;;;;5069014;28;20730;-95
2022/06/25 07:48:25;;;;;;;2.28;2.08;;;31.70;82.00;;;;;;5075526;28;20231;-94
2022/06/25 07:53:39;;;;;;;2.90;2.50;;;32.00;80.30;;;;;;5094174;28;20199;-95
2022/06/25 07:56:07;;;;;;;2.35;2.03;;;32.10;78.70;;;;;;5095689;28;20219;-93
2022/06/25 07:58:34;;;;;;;3.15;2.85;;;32.30;75.10;;;;;;5094157;28;20314;-94
2022/06/25 08:01:01;;;;;;;3.25;2.65;;;32.40;75.20;;;;;;5081778;28;20287;-92
2022/06/25 08:03:28;;;;;;;3.88;2.78;;;32.50;75.80;;;;;;5068162;28;20207;-94
2022/06/25 08:05:56;;;;;;;3.15;2.33;;;32.60;74.90;;;;;;5077522;28;20743;-94
2022/06/25 08:08:23;;;;;;;2.47;2.30;;;32.90;72.50;;;;;;5075748;28;20297;-92
2022/06/25 08:10:52;;;;;;;3.85;2.53;;;33.20;73.30;;;;;;5087975;28;20282;-94
2022/06/25 08:13:22;;;;;;;3.42;2.42;;;33.40;71.00;;;;;;5098422;27;20284;-93
2022/06/25 08:15:49;;;;;;;2.72;2.47;;;33.80;68.00;;;;;;5093255;28;20222;-90
2022/06/25 08:18:16;;;;;;;2.90;2.50;;;34.10;68.40;;;;;;5070531;28;20307;-94
2022/06/25 08:20:43;;;;;;;3.03;2.78;;;34.30;66.10;;;;;;5090241;28;20222;-93
2022/06/25 08:23:10;;;;;;;3.05;2.75;;;34.30;64.90;;;;;;5070420;28;20226;-92
2022/06/25 08:25:37;;;;;;;2.92;2.70;;;34.30;62.80;;;;;;5074488;28;20239;-94
2022/06/25 08:28:04;;;;;;;4.10;3.30;;;34.30;64.10;;;;;;5075664;28;20670;-92
2022/06/25 08:30:33;;;;;;;3.85;3.10;;;34.30;64.00;;;;;;5073365;28;20286;-93
2022/06/25 08:32:59;;;;;;;3.97;2.70;;;34.40;63.20;;;;;;5075860;28;20330;-93
2022/06/25 08:35:26;;;;;;;2.70;2.50;;;34.50;63.70;;;;;;5084698;28;20700;-94
2022/06/25 08:37:54;;;;;;;2.30;2.10;;;34.60;63.20;;;;;;5072411;28;20227;-93
2022/06/25 08:40:21;;;;;;;2.70;2.50;;;34.90;63.20;;;;;;5088356;28;20266;-91
2022/06/25 08:42:51;;;;;;;4.10;2.92;;;35.10;60.30;;;;;;5064749;28;20325;-94
2022/06/25 08:45:19;;;;;;;3.20;2.90;;;35.20;58.30;;;;;;5090767;22;20240;-79
2022/06/25 08:47:49;;;;;;;2.90;2.65;;;35.20;58.80;;;;;;5058368;28;20322;-81
2022/06/25 08:50:17;;;;;;;3.50;3.20;;;35.10;58.50;;;;;;5065903;28;20512;-80
2022/06/25 08:52:48;;;;;;;5.00;2.97;;;35.10;58.50;;;;;;5080838;28;20226;-79
2022/06/25 08:55:24;;;;;;;3.85;3.50;;;35.10;57.80;;;;;;5073474;28;20342;-79
2022/06/25 08:57:51;;;;;;;3.80;3.50;;;35.20;57.20;;;;;;5057021;28;20226;-79
2022/06/25 09:00:18;;;;;;;3.60;3.30;;;35.20;58.10;;;;;;5058982;28;20226;-80
2022/06/25 09:02:45;;;;;;;3.38;2.40;;;35.30;57.50;;;;;;5077899;28;20234;-79
2022/06/25 09:05:13;;;;;;;3.33;3.10;;;35.40;57.60;;;;;;5084681;28;20235;-81
2022/06/25 09:07:51;;;;;;;3.17;2.88;;;35.50;56.80;;;;;;5060158;28;20295;-80
2022/06/25 09:10:20;;;;;;;4.10;3.35;;;35.70;57.20;;;;;;5070562;28;20233;-80
2022/06/25 09:12:51;;;;;;;3.13;2.88;;;36.00;56.90;;;;;;5093637;28;20326;-80
2022/06/25 09:15:19;;;;;;;3.78;3.47;;;36.20;55.90;;;;;;5089173;28;20238;-81
2022/06/25 09:17:48;;;;;;;3.42;3.15;;;36.30;55.60;;;;;;5091263;28;21401;-81
2022/06/25 09:20:17;;;;;;;4.03;3.70;;;36.20;55.00;;;;;;5070209;28;20217;-80
2022/06/25 09:22:53;;;;;;;4.18;3.78;;;35.90;55.00;;;;;;5092884;28;20307;-80
2022/06/25 09:25:25;;;;;;;3.22;3.03;;;35.50;54.40;;;;;;5070902;28;20229;-81
2022/06/25 09:27:52;;;;;;;3.63;3.33;;;35.10;54.70;;;;;;5070596;28;20879;-80
2022/06/25 09:30:20;;;;;;;4.20;3.80;;;34.90;55.80;;;;;;5074683;28;20652;-80
2022/06/25 09:32:48;;;;;;;4.97;4.18;;;34.70;55.80;;;;;;5072476;28;21705;-80
2022/06/25 09:35:30;;;;;;;4.18;3.55;;;34.60;55.90;;;;;;5080819;28;20222;-80
2022/06/25 09:38:01;;;;;;;3.63;2.95;;;34.60;56.70;;;;;;5085453;28;20223;-80
2022/06/25 09:40:29;;;;;;;3.00;2.80;;;34.70;56.50;;;;;;5086541;28;20599;-80
2022/06/25 09:42:57;;;;;;;3.20;2.90;;;34.90;56.30;;;;;;5088333;28;20719;-80
2022/06/25 09:45:23;;;;;;;3.13;2.80;;;35.10;56.50;;;;;;5068766;28;20229;-80
2022/06/25 09:47:50;;;;;;;3.20;3.00;;;35.40;56.50;;;;;;5090515;28;20223;-81
2022/06/25 09:50:20;;;;;;;3.53;3.25;;;35.60;56.10;;;;;;5073260;28;20264;-80
2022/06/25 09:52:52;;;;;;;5.47;3.03;;;35.70;54.80;;;;;;5064798;28;20289;-80
2022/06/25 09:55:20;;;;;;;3.20;2.90;;;35.90;53.90;;;;;;5087520;28;20219;-81
2022/06/25 09:57:48;;;;;;;4.18;3.08;;;36.20;54.40;;;;;;5091628;28;20254;-81
2022/06/25 10:00:16;;;;;;;2.83;2.63;;;36.60;54.20;;;;;;5071189;28;20227;-81
2022/06/25 10:02:45;;;;;;;4.28;2.85;;;36.90;54.20;;;;;;5069894;28;20494;-81
2022/06/25 10:05:13;;;;;;;2.65;2.45;;;37.30;52.80;;;;;;5091089;28;20235;-81
2022/06/25 10:08:03;;;;;;;2.70;2.50;;;37.60;52.90;;;;;;5091762;28;20223;-81
2022/06/25 10:10:34;;;;;;;3.22;2.42;;;37.90;51.80;;;;;;5093297;28;20227;-81
2022/06/25 10:13:02;;;;;;;2.30;2.10;;;38.30;51.70;;;;;;5086705;28;20246;-81
2022/06/25 10:15:30;;;;;;;2.40;2.30;;;38.50;51.10;;;;;;5077839;28;20231;-81
2022/06/25 10:17:56;;;;;;;4.28;3.17;;;38.60;49.50;;;;;;5094150;28;20230;-80
2022/06/25 10:20:23;;;;;;;3.90;3.60;;;38.60;50.30;;;;;;5072536;28;20536;-81
2022/06/25 10:22:53;;;;;;;4.03;3.70;;;38.50;50.40;;;;;;5071967;28;20234;-80
2022/06/25 10:25:23;;;;;;;4.05;3.75;;;38.40;49.70;;;;;;5095344;28;20229;-80
2022/06/25 10:27:51;;;;;;;4.40;4.10;;;38.40;49.80;;;;;;5079362;28;20227;-81
2022/06/25 10:30:37;;;;;;;3.53;3.25;;;38.40;50.00;;;;;;5069574;28;20249;-81
2022/06/25 10:33:04;;;;;;;3.90;3.33;;;38.50;50.00;;;;;;5076141;28;20286;-80
2022/06/25 10:35:34;;;;;;;4.40;4.10;;;38.60;49.60;;;;;;5095263;28;20222;-80
2022/06/25 10:38:05;;;;;;;4.10;3.80;;;38.40;49.10;;;;;;5077007;28;20233;-80
2022/06/25 10:40:33;;;;;;;3.47;3.17;;;38.20;49.20;;;;;;5072905;28;20746;-81
2022/06/25 10:43:03;;;;;;;3.80;3.47;;;37.80;49.60;;;;;;5089213;28;20595;-80
2022/06/25 10:45:52;;;;;;;3.75;3.45;;;37.40;49.60;;;;;;5093401;28;20218;-80
2022/06/25 10:48:22;;;;;;;3.67;3.38;;;36.80;50.10;;;;;;5086632;28;20222;-80
2022/06/25 10:50:50;;;;;;;3.65;3.35;;;36.40;50.30;;;;;;5080833;28;20325;-81
2022/06/25 10:53:26;;;;;;;3.13;2.90;;;36.00;51.00;;;;;;5080238;28;20223;-81
2022/06/25 10:56:23;;;;;;;4.60;3.22;;;35.70;50.80;;;;;;5093899;28;20226;-81
2022/06/25 10:58:51;;;;;;;3.25;2.83;;;35.50;51.20;;;;;;5067138;28;20231;-81
2022/06/25 11:01:20;;;;;;;5.60;3.03;;;35.60;51.50;;;;;;5097384;28;20309;-80
2022/06/25 11:03:51;;;;;;;2.92;2.55;;;35.70;51.60;;;;;;5096651;28;20230;-80
2022/06/25 11:06:20;;;;;;;2.80;2.60;;;35.70;50.70;;;;;;5099643;28;20694;-80
2022/06/25 11:08:49;;;;;;;3.30;3.00;;;35.70;50.30;;;;;;5080514;28;20237;-80
2022/06/25 11:11:24;;;;;;;2.97;2.78;;;35.60;49.90;;;;;;5074338;28;20303;-80
2022/06/25 11:13:51;;;;;;;4.97;2.85;;;35.40;50.00;;;;;;5078006;28;20236;-80
2022/06/25 11:16:19;;;;;;;2.50;2.20;;;35.30;50.20;;;;;;5067515;28;21537;-80
2022/06/25 11:18:47;;;;;;;3.15;2.13;;;35.30;50.10;;;;;;5097604;28;20227;-81
2022/06/25 11:21:25;;;;;;;1.77;1.67;;;35.50;50.70;;;;;;5083560;28;20214;-81
2022/06/25 11:23:53;;;;;;;1.67;1.58;;;35.70;48.60;;;;;;5073395;28;20223;-81
2022/06/25 11:29:05;;;;;;;2.45;2.25;;;36.20;48.20;;;;;;5054588;28;20226;-80
2022/06/25 11:31:34;;;;;;;2.20;1.75;;;36.40;48.10;;;;;;5079790;28;20333;-80
2022/06/25 11:34:03;;;;;;;2.70;1.85;;;36.60;47.20;;;;;;5094604;28;20222;-80
2022/06/25 11:36:33;;;;;;;2.20;2.00;;;36.60;47.20;;;;;;5073370;28;20229;-83
2022/06/25 11:39:01;;;;;;;2.30;1.75;;;36.60;46.80;;;;;;5089695;28;20227;-82
2022/06/25 11:41:31;;;;;;;1.98;1.77;;;36.60;47.10;;;;;;5053708;28;20227;-82
2022/06/25 11:44:05;;;;;;;1.73;1.63;;;36.60;47.10;;;;;;5073290;28;20473;-83
2022/06/25 11:46:34;;;;;;;2.03;1.83;;;36.60;46.80;;;;;;5090730;28;20321;-81
2022/06/25 11:49:04;;;;;;;1.70;1.60;;;36.70;46.90;;;;;;5111222;28;20261;-82
2022/06/25 11:51:32;;;;;;;2.25;1.52;;;36.80;46.60;;;;;;5076404;28;20790;-82
2022/06/25 11:54:06;;;;;;;2.78;1.63;;;37.00;46.40;;;;;;5057436;28;20622;-82
2022/06/25 11:56:33;;;;;;;1.65;1.55;;;37.00;45.90;;;;;;5096821;28;20246;-82
2022/06/25 11:58:59;;;;;;;1.40;1.30;;;37.20;45.30;;;;;;5070898;28;20242;-81
2022/06/25 12:01:29;;;;;;;1.70;1.60;;;37.30;45.30;;;;;;5074745;22;20246;-82
2022/06/25 12:03:56;;;;;;;2.80;1.60;;;37.30;44.80;;;;;;5059238;28;20219;-82
2022/06/25 12:06:24;;;;;;;1.65;1.55;;;37.30;45.10;;;;;;5080892;28;20216;-81
2022/06/25 12:08:51;;;;;;;2.10;1.90;;;37.30;45.10;;;;;;5079757;28;20220;-81
2022/06/25 12:11:20;;;;;;;2.08;1.92;;;37.10;45.50;;;;;;5056482;28;20231;-82
2022/06/25 12:13:47;;;;;;;1.88;1.77;;;36.70;44.90;;;;;;5040548;28;20740;-81
2022/06/25 12:16:14;;;;;;;2.40;1.90;;;36.40;45.50;;;;;;5056624;28;20226;-81
2022/06/25 12:18:42;;;;;;;2.22;1.63;;;36.20;46.10;;;;;;5055184;28;20237;-82
2022/06/25 12:21:10;;;;;;;1.73;1.63;;;36.00;46.40;;;;;;5038052;28;20247;-81
2022/06/25 12:23:51;;;;;;;2.35;1.77;;;36.00;46.00;;;;;;5039377;28;20288;-82
2022/06/25 12:26:27;;;;;;;1.95;1.80;;;36.00;46.60;;;;;;5042817;28;20300;-82
2022/06/25 12:28:54;;;;;;;1.70;1.60;;;36.20;46.60;;;;;;5040867;28;20227;-82
2022/06/25 12:31:21;;;;;;;2.30;1.58;;;36.30;46.30;;;;;;5038593;28;20232;-81
2022/06/25 12:33:51;;;;;;;1.92;1.50;;;36.50;45.90;;;;;;5034405;28;20217;-82
2022/06/25 12:36:18;;;;;;;2.63;1.58;;;36.60;44.80;;;;;;5058601;28;20277;-82
2022/06/25 12:38:46;;;;;;;2.05;1.65;;;36.80;45.30;;;;;;5058093;28;20437;-82
2022/06/25 12:41:12;;;;;;;2.80;1.50;;;37.00;45.80;;;;;;5040672;28;20243;-82
2022/06/25 12:43:48;;;;;;;1.70;1.48;;;37.20;44.70;;;;;;5040961;28;20368;-81
2022/06/25 12:46:19;;;;;;;1.80;1.70;;;37.30;44.20;;;;;;5059166;28;20683;-82
2022/06/25 12:48:46;;;;;;;2.13;2.00;;;37.50;44.30;;;;;;5038674;28;20323;-82
2022/06/25 12:51:15;;;;;;;2.20;2.05;;;37.50;44.20;;;;;;5038167;28;20242;-82
2022/06/25 12:53:45;;;;;;;1.92;1.70;;;37.50;43.50;;;;;;5036165;28;20667;-82
2022/06/25 12:56:13;;;;;;;2.83;1.67;;;37.40;43.20;;;;;;5039409;28;20636;-82
2022/06/25 12:58:43;;;;;;;2.47;1.67;;;37.40;43.50;;;;;;5039196;28;20227;-82